sensor_id;sensor_type;location;lat;lon;timestamp;P1;durP1;ratioP1;P2;durP2;ratioP2
59302;SDS011;45074;52.764;6.896;2023-11-18T00:00:22;21.42;;;12.85;;
59302;SDS011;45074;52.764;6.896;2023-11-18T00:02:49;18.15;;;11.52;;
59302;SDS011;45074;52.764;6.896;2023-11-18T00:05:15;19.30;;;11.32;;
59302;SDS011;45074;52.764;6.896;2023-11-18T00:07:41;17.27;;;10.93;;
59302;SDS011;45074;52.764;6.896;2023-11-18T00:10:07;20.95;;;10.57;;
59302;SDS011;45074;52.764;6.896;2023-11-18T00:12:33;17.90;;;10.27;;
59302;SDS011;45074;52.764;6.896;2023-11-18T00:15:00;18.92;;;10.88;;
59302;SDS011;45074;52.764;6.896;2023-11-18T00:17:28;16.73;;;10.85;;
59302;SDS011;45074;52.764;6.896;2023-11-18T00:19:55;17.25;;;11.52;;
59302;SDS011;45074;52.764;6.896;2023-11-18T00:22:21;19.45;;;11.48;;
59302;SDS011;45074;52.764;6.896;2023-11-18T00:24:47;19.52;;;11.48;;
59302;SDS011;45074;52.764;6.896;2023-11-18T00:27:12;16.48;;;11.10;;
59302;SDS011;45074;52.764;6.896;2023-11-18T00:29:40;17.05;;;10.93;;
59302;SDS011;45074;52.764;6.896;2023-11-18T00:32:06;17.60;;;11.40;;
59302;SDS011;45074;52.764;6.896;2023-11-18T00:34:32;17.77;;;11.68;;
59302;SDS011;45074;52.764;6.896;2023-11-18T00:36:58;17.08;;;10.65;;
59302;SDS011;45074;52.764;6.896;2023-11-18T00:39:24;16.73;;;11.73;;
59302;SDS011;45074;52.764;6.896;2023-11-18T00:41:50;17.40;;;11.35;;
59302;SDS011;45074;52.764;6.896;2023-11-18T00:44:16;16.55;;;10.95;;
59302;SDS011;45074;52.764;6.896;2023-11-18T00:46:41;18.00;;;11.23;;
59302;SDS011;45074;52.764;6.896;2023-11-18T00:49:07;16.58;;;11.07;;
59302;SDS011;45074;52.764;6.896;2023-11-18T00:51:33;15.85;;;10.63;;
59302;SDS011;45074;52.764;6.896;2023-11-18T00:53:58;16.73;;;10.95;;
59302;SDS011;45074;52.764;6.896;2023-11-18T00:56:27;17.55;;;11.70;;
59302;SDS011;45074;52.764;6.896;2023-11-18T00:58:54;17.75;;;11.98;;
59302;SDS011;45074;52.764;6.896;2023-11-18T01:01:19;18.42;;;11.77;;
59302;SDS011;45074;52.764;6.896;2023-11-18T01:03:46;17.95;;;11.85;;
59302;SDS011;45074;52.764;6.896;2023-11-18T01:06:12;17.35;;;11.63;;
59302;SDS011;45074;52.764;6.896;2023-11-18T01:08:43;18.52;;;11.77;;
59302;SDS011;45074;52.764;6.896;2023-11-18T01:11:09;18.90;;;12.15;;
59302;SDS011;45074;52.764;6.896;2023-11-18T01:13:35;17.70;;;12.43;;
59302;SDS011;45074;52.764;6.896;2023-11-18T01:16:00;17.73;;;11.88;;
59302;SDS011;45074;52.764;6.896;2023-11-18T01:18:27;17.50;;;12.63;;
59302;SDS011;45074;52.764;6.896;2023-11-18T01:20:53;17.42;;;11.30;;
59302;SDS011;45074;52.764;6.896;2023-11-18T01:23:18;15.65;;;10.38;;
59302;SDS011;45074;52.764;6.896;2023-11-18T01:25:44;17.42;;;12.02;;
59302;SDS011;45074;52.764;6.896;2023-11-18T01:28:10;17.10;;;11.80;;
59302;SDS011;45074;52.764;6.896;2023-11-18T01:30:36;18.48;;;11.02;;
59302;SDS011;45074;52.764;6.896;2023-11-18T01:33:01;19.52;;;12.38;;
59302;SDS011;45074;52.764;6.896;2023-11-18T01:35:27;18.05;;;12.32;;
59302;SDS011;45074;52.764;6.896;2023-11-18T01:37:53;18.83;;;11.90;;
59302;SDS011;45074;52.764;6.896;2023-11-18T01:40:19;20.05;;;12.77;;
59302;SDS011;45074;52.764;6.896;2023-11-18T01:42:46;19.73;;;12.48;;
59302;SDS011;45074;52.764;6.896;2023-11-18T01:45:12;19.15;;;12.23;;
59302;SDS011;45074;52.764;6.896;2023-11-18T01:47:39;22.05;;;13.00;;
59302;SDS011;45074;52.764;6.896;2023-11-18T01:50:06;19.65;;;12.00;;
59302;SDS011;45074;52.764;6.896;2023-11-18T01:52:35;18.38;;;11.75;;
59302;SDS011;45074;52.764;6.896;2023-11-18T01:55:02;19.25;;;12.18;;
59302;SDS011;45074;52.764;6.896;2023-11-18T01:57:31;20.85;;;13.68;;
59302;SDS011;45074;52.764;6.896;2023-11-18T01:59:58;21.00;;;13.43;;
59302;SDS011;45074;52.764;6.896;2023-11-18T02:02:25;21.23;;;13.10;;
59302;SDS011;45074;52.764;6.896;2023-11-18T02:04:51;21.63;;;12.30;;
59302;SDS011;45074;52.764;6.896;2023-11-18T02:07:17;22.90;;;13.23;;
59302;SDS011;45074;52.764;6.896;2023-11-18T02:09:43;22.35;;;12.98;;
59302;SDS011;45074;52.764;6.896;2023-11-18T02:14:59;24.95;;;12.77;;
59302;SDS011;45074;52.764;6.896;2023-11-18T02:17:26;25.20;;;14.82;;
59302;SDS011;45074;52.764;6.896;2023-11-18T02:19:54;30.50;;;14.30;;
59302;SDS011;45074;52.764;6.896;2023-11-18T02:22:22;26.63;;;13.77;;
59302;SDS011;45074;52.764;6.896;2023-11-18T02:24:48;25.52;;;13.75;;
59302;SDS011;45074;52.764;6.896;2023-11-18T02:27:15;26.88;;;16.00;;
59302;SDS011;45074;52.764;6.896;2023-11-18T02:29:42;25.88;;;15.00;;
59302;SDS011;45074;52.764;6.896;2023-11-18T02:32:29;29.95;;;14.88;;
59302;SDS011;45074;52.764;6.896;2023-11-18T02:35:38;33.17;;;15.00;;
59302;SDS011;45074;52.764;6.896;2023-11-18T02:38:13;26.92;;;13.90;;
59302;SDS011;45074;52.764;6.896;2023-11-18T02:40:43;30.63;;;15.77;;
59302;SDS011;45074;52.764;6.896;2023-11-18T02:43:10;25.73;;;14.98;;
59302;SDS011;45074;52.764;6.896;2023-11-18T02:45:36;23.58;;;13.95;;
59302;SDS011;45074;52.764;6.896;2023-11-18T02:48:05;25.33;;;15.18;;
59302;SDS011;45074;52.764;6.896;2023-11-18T02:50:31;26.90;;;14.35;;
59302;SDS011;45074;52.764;6.896;2023-11-18T02:52:57;25.80;;;14.60;;
59302;SDS011;45074;52.764;6.896;2023-11-18T02:55:23;26.77;;;14.40;;
59302;SDS011;45074;52.764;6.896;2023-11-18T02:57:49;25.88;;;14.25;;
59302;SDS011;45074;52.764;6.896;2023-11-18T03:00:18;28.23;;;15.20;;
59302;SDS011;45074;52.764;6.896;2023-11-18T03:02:46;27.90;;;13.98;;
59302;SDS011;45074;52.764;6.896;2023-11-18T03:05:13;26.08;;;14.38;;
59302;SDS011;45074;52.764;6.896;2023-11-18T03:07:43;24.25;;;13.32;;
59302;SDS011;45074;52.764;6.896;2023-11-18T03:10:12;27.38;;;15.18;;
59302;SDS011;45074;52.764;6.896;2023-11-18T03:12:46;27.83;;;14.32;;
59302;SDS011;45074;52.764;6.896;2023-11-18T03:15:15;27.17;;;14.82;;
59302;SDS011;45074;52.764;6.896;2023-11-18T03:17:47;26.90;;;15.18;;
59302;SDS011;45074;52.764;6.896;2023-11-18T03:20:18;32.08;;;16.10;;
59302;SDS011;45074;52.764;6.896;2023-11-18T03:22:47;35.00;;;14.98;;
59302;SDS011;45074;52.764;6.896;2023-11-18T03:25:15;29.63;;;14.80;;
59302;SDS011;45074;52.764;6.896;2023-11-18T03:27:42;30.40;;;14.85;;
59302;SDS011;45074;52.764;6.896;2023-11-18T03:30:09;30.55;;;16.00;;
59302;SDS011;45074;52.764;6.896;2023-11-18T03:32:35;28.27;;;15.00;;
59302;SDS011;45074;52.764;6.896;2023-11-18T03:35:02;29.73;;;14.90;;
59302;SDS011;45074;52.764;6.896;2023-11-18T03:37:34;30.98;;;16.02;;
59302;SDS011;45074;52.764;6.896;2023-11-18T03:40:00;28.55;;;14.35;;
59302;SDS011;45074;52.764;6.896;2023-11-18T03:42:26;31.20;;;16.15;;
59302;SDS011;45074;52.764;6.896;2023-11-18T03:44:54;40.53;;;15.75;;
59302;SDS011;45074;52.764;6.896;2023-11-18T03:47:19;32.63;;;15.48;;
59302;SDS011;45074;52.764;6.896;2023-11-18T03:49:49;30.80;;;15.30;;
59302;SDS011;45074;52.764;6.896;2023-11-18T03:52:15;31.00;;;15.50;;
59302;SDS011;45074;52.764;6.896;2023-11-18T03:54:40;31.00;;;14.48;;
59302;SDS011;45074;52.764;6.896;2023-11-18T03:57:06;29.75;;;14.73;;
59302;SDS011;45074;52.764;6.896;2023-11-18T03:59:32;26.67;;;14.45;;
59302;SDS011;45074;52.764;6.896;2023-11-18T04:01:58;26.90;;;14.30;;
59302;SDS011;45074;52.764;6.896;2023-11-18T04:04:24;26.67;;;14.40;;
59302;SDS011;45074;52.764;6.896;2023-11-18T04:06:49;26.30;;;13.50;;
59302;SDS011;45074;52.764;6.896;2023-11-18T04:09:15;27.02;;;13.93;;
59302;SDS011;45074;52.764;6.896;2023-11-18T04:11:41;24.60;;;13.40;;
59302;SDS011;45074;52.764;6.896;2023-11-18T04:14:09;28.70;;;13.93;;
59302;SDS011;45074;52.764;6.896;2023-11-18T04:16:35;28.33;;;14.32;;
59302;SDS011;45074;52.764;6.896;2023-11-18T04:19:03;27.35;;;14.15;;
59302;SDS011;45074;52.764;6.896;2023-11-18T04:21:29;28.67;;;14.93;;
59302;SDS011;45074;52.764;6.896;2023-11-18T04:23:55;26.35;;;14.15;;
59302;SDS011;45074;52.764;6.896;2023-11-18T04:26:20;24.95;;;13.15;;
59302;SDS011;45074;52.764;6.896;2023-11-18T04:28:46;23.95;;;13.15;;
59302;SDS011;45074;52.764;6.896;2023-11-18T04:31:11;26.25;;;13.18;;
59302;SDS011;45074;52.764;6.896;2023-11-18T04:33:38;27.05;;;13.38;;
59302;SDS011;45074;52.764;6.896;2023-11-18T04:36:06;29.48;;;14.75;;
59302;SDS011;45074;52.764;6.896;2023-11-18T04:38:35;27.23;;;14.93;;
59302;SDS011;45074;52.764;6.896;2023-11-18T04:41:01;28.65;;;14.80;;
59302;SDS011;45074;52.764;6.896;2023-11-18T04:43:28;28.63;;;13.82;;
59302;SDS011;45074;52.764;6.896;2023-11-18T04:45:55;27.88;;;13.45;;
59302;SDS011;45074;52.764;6.896;2023-11-18T04:48:21;28.67;;;14.30;;
59302;SDS011;45074;52.764;6.896;2023-11-18T04:50:47;25.60;;;13.73;;
59302;SDS011;45074;52.764;6.896;2023-11-18T04:53:13;27.77;;;14.75;;
59302;SDS011;45074;52.764;6.896;2023-11-18T04:55:38;30.23;;;13.35;;
59302;SDS011;45074;52.764;6.896;2023-11-18T04:58:05;30.23;;;13.80;;
59302;SDS011;45074;52.764;6.896;2023-11-18T05:00:33;29.63;;;14.88;;
59302;SDS011;45074;52.764;6.896;2023-11-18T05:02:59;25.75;;;14.13;;
59302;SDS011;45074;52.764;6.896;2023-11-18T05:05:25;28.13;;;13.80;;
59302;SDS011;45074;52.764;6.896;2023-11-18T05:07:51;29.30;;;14.27;;
59302;SDS011;45074;52.764;6.896;2023-11-18T05:10:16;28.95;;;14.40;;
59302;SDS011;45074;52.764;6.896;2023-11-18T05:12:43;28.52;;;14.18;;
59302;SDS011;45074;52.764;6.896;2023-11-18T05:15:09;28.90;;;15.50;;
59302;SDS011;45074;52.764;6.896;2023-11-18T05:17:35;29.58;;;15.52;;
59302;SDS011;45074;52.764;6.896;2023-11-18T05:20:02;30.45;;;14.57;;
59302;SDS011;45074;52.764;6.896;2023-11-18T05:22:29;27.92;;;13.80;;
59302;SDS011;45074;52.764;6.896;2023-11-18T05:24:56;29.23;;;14.18;;
59302;SDS011;45074;52.764;6.896;2023-11-18T05:27:22;30.30;;;14.55;;
59302;SDS011;45074;52.764;6.896;2023-11-18T05:29:48;29.05;;;14.68;;
59302;SDS011;45074;52.764;6.896;2023-11-18T05:34:45;29.17;;;15.02;;
59302;SDS011;45074;52.764;6.896;2023-11-18T05:37:11;30.33;;;15.23;;
59302;SDS011;45074;52.764;6.896;2023-11-18T05:39:37;27.70;;;13.70;;
59302;SDS011;45074;52.764;6.896;2023-11-18T05:42:09;29.75;;;14.10;;
59302;SDS011;45074;52.764;6.896;2023-11-18T05:44:36;27.08;;;14.55;;
59302;SDS011;45074;52.764;6.896;2023-11-18T05:47:06;27.35;;;13.55;;
59302;SDS011;45074;52.764;6.896;2023-11-18T05:49:35;30.65;;;13.85;;
59302;SDS011;45074;52.764;6.896;2023-11-18T05:52:00;30.27;;;14.40;;
59302;SDS011;45074;52.764;6.896;2023-11-18T05:54:26;31.23;;;14.80;;
59302;SDS011;45074;52.764;6.896;2023-11-18T05:56:53;29.55;;;14.07;;
59302;SDS011;45074;52.764;6.896;2023-11-18T05:59:19;31.45;;;14.30;;
59302;SDS011;45074;52.764;6.896;2023-11-18T06:01:44;31.40;;;14.70;;
59302;SDS011;45074;52.764;6.896;2023-11-18T06:04:12;29.17;;;14.13;;
59302;SDS011;45074;52.764;6.896;2023-11-18T06:06:38;30.67;;;14.68;;
59302;SDS011;45074;52.764;6.896;2023-11-18T06:09:04;31.92;;;15.20;;
59302;SDS011;45074;52.764;6.896;2023-11-18T06:11:34;29.35;;;14.30;;
59302;SDS011;45074;52.764;6.896;2023-11-18T06:14:00;29.27;;;13.90;;
59302;SDS011;45074;52.764;6.896;2023-11-18T06:16:26;33.30;;;15.20;;
59302;SDS011;45074;52.764;6.896;2023-11-18T06:18:53;31.08;;;14.13;;
59302;SDS011;45074;52.764;6.896;2023-11-18T06:21:20;32.22;;;14.88;;
59302;SDS011;45074;52.764;6.896;2023-11-18T06:23:50;29.33;;;14.43;;
59302;SDS011;45074;52.764;6.896;2023-11-18T06:26:16;30.70;;;14.13;;
59302;SDS011;45074;52.764;6.896;2023-11-18T06:28:45;32.22;;;15.35;;
59302;SDS011;45074;52.764;6.896;2023-11-18T06:31:11;31.52;;;13.40;;
59302;SDS011;45074;52.764;6.896;2023-11-18T06:33:39;33.03;;;15.18;;
59302;SDS011;45074;52.764;6.896;2023-11-18T06:36:10;31.27;;;14.32;;
59302;SDS011;45074;52.764;6.896;2023-11-18T06:38:42;34.95;;;14.63;;
59302;SDS011;45074;52.764;6.896;2023-11-18T06:41:12;33.53;;;14.88;;
59302;SDS011;45074;52.764;6.896;2023-11-18T06:43:40;33.30;;;14.20;;
59302;SDS011;45074;52.764;6.896;2023-11-18T06:46:28;34.63;;;14.68;;
59302;SDS011;45074;52.764;6.896;2023-11-18T06:48:56;33.20;;;15.77;;
59302;SDS011;45074;52.764;6.896;2023-11-18T06:51:23;32.55;;;14.82;;
59302;SDS011;45074;52.764;6.896;2023-11-18T06:53:52;30.98;;;14.27;;
59302;SDS011;45074;52.764;6.896;2023-11-18T06:56:24;32.70;;;15.70;;
59302;SDS011;45074;52.764;6.896;2023-11-18T06:58:51;35.63;;;15.52;;
59302;SDS011;45074;52.764;6.896;2023-11-18T07:01:17;34.60;;;16.25;;
59302;SDS011;45074;52.764;6.896;2023-11-18T07:03:46;35.72;;;16.90;;
59302;SDS011;45074;52.764;6.896;2023-11-18T07:06:21;34.17;;;15.73;;
59302;SDS011;45074;52.764;6.896;2023-11-18T07:08:48;40.83;;;17.55;;
59302;SDS011;45074;52.764;6.896;2023-11-18T07:11:14;35.58;;;16.50;;
59302;SDS011;45074;52.764;6.896;2023-11-18T07:13:40;35.78;;;18.02;;
59302;SDS011;45074;52.764;6.896;2023-11-18T07:16:06;41.88;;;17.25;;
59302;SDS011;45074;52.764;6.896;2023-11-18T07:18:34;40.88;;;17.13;;
59302;SDS011;45074;52.764;6.896;2023-11-18T07:21:00;40.70;;;15.77;;
59302;SDS011;45074;52.764;6.896;2023-11-18T07:23:26;34.65;;;16.60;;
59302;SDS011;45074;52.764;6.896;2023-11-18T07:25:51;39.92;;;17.17;;
59302;SDS011;45074;52.764;6.896;2023-11-18T07:28:18;42.00;;;17.45;;
59302;SDS011;45074;52.764;6.896;2023-11-18T07:30:45;37.85;;;17.08;;
59302;SDS011;45074;52.764;6.896;2023-11-18T07:33:21;36.28;;;17.00;;
59302;SDS011;45074;52.764;6.896;2023-11-18T07:35:47;39.20;;;17.13;;
59302;SDS011;45074;52.764;6.896;2023-11-18T07:38:14;40.42;;;17.20;;
59302;SDS011;45074;52.764;6.896;2023-11-18T07:40:40;41.33;;;17.48;;
59302;SDS011;45074;52.764;6.896;2023-11-18T07:43:14;41.53;;;17.10;;
59302;SDS011;45074;52.764;6.896;2023-11-18T07:45:40;34.80;;;17.85;;
59302;SDS011;45074;52.764;6.896;2023-11-18T07:48:07;38.75;;;17.13;;
59302;SDS011;45074;52.764;6.896;2023-11-18T07:50:42;35.08;;;16.55;;
59302;SDS011;45074;52.764;6.896;2023-11-18T07:53:09;36.90;;;16.77;;
59302;SDS011;45074;52.764;6.896;2023-11-18T07:55:36;33.97;;;16.42;;
59302;SDS011;45074;52.764;6.896;2023-11-18T07:58:08;34.90;;;16.45;;
59302;SDS011;45074;52.764;6.896;2023-11-18T08:00:37;36.55;;;16.88;;
59302;SDS011;45074;52.764;6.896;2023-11-18T08:03:04;35.25;;;17.30;;
59302;SDS011;45074;52.764;6.896;2023-11-18T08:05:43;36.35;;;16.33;;
59302;SDS011;45074;52.764;6.896;2023-11-18T08:08:13;39.45;;;18.92;;
59302;SDS011;45074;52.764;6.896;2023-11-18T08:10:41;40.17;;;19.10;;
59302;SDS011;45074;52.764;6.896;2023-11-18T08:13:09;34.92;;;17.73;;
59302;SDS011;45074;52.764;6.896;2023-11-18T08:15:39;38.05;;;18.23;;
59302;SDS011;45074;52.764;6.896;2023-11-18T08:18:06;35.92;;;18.17;;
59302;SDS011;45074;52.764;6.896;2023-11-18T08:20:33;35.88;;;17.23;;
59302;SDS011;45074;52.764;6.896;2023-11-18T08:22:58;37.80;;;18.42;;
59302;SDS011;45074;52.764;6.896;2023-11-18T08:25:24;35.95;;;17.65;;
59302;SDS011;45074;52.764;6.896;2023-11-18T08:27:51;34.92;;;17.33;;
59302;SDS011;45074;52.764;6.896;2023-11-18T08:30:17;38.22;;;17.38;;
59302;SDS011;45074;52.764;6.896;2023-11-18T08:32:43;38.47;;;17.73;;
59302;SDS011;45074;52.764;6.896;2023-11-18T08:35:11;38.95;;;17.83;;
59302;SDS011;45074;52.764;6.896;2023-11-18T08:37:43;38.30;;;17.42;;
59302;SDS011;45074;52.764;6.896;2023-11-18T08:40:10;35.70;;;17.02;;
59302;SDS011;45074;52.764;6.896;2023-11-18T08:42:41;39.55;;;18.48;;
59302;SDS011;45074;52.764;6.896;2023-11-18T08:45:18;36.53;;;17.20;;
59302;SDS011;45074;52.764;6.896;2023-11-18T08:47:46;35.55;;;17.25;;
59302;SDS011;45074;52.764;6.896;2023-11-18T08:50:16;37.28;;;18.13;;
59302;SDS011;45074;52.764;6.896;2023-11-18T08:52:42;40.55;;;18.52;;
59302;SDS011;45074;52.764;6.896;2023-11-18T08:55:11;41.08;;;18.17;;
59302;SDS011;45074;52.764;6.896;2023-11-18T08:57:38;39.00;;;17.92;;
59302;SDS011;45074;52.764;6.896;2023-11-18T09:00:17;40.35;;;18.70;;
59302;SDS011;45074;52.764;6.896;2023-11-18T09:03:01;38.53;;;18.90;;
59302;SDS011;45074;52.764;6.896;2023-11-18T09:05:30;38.60;;;19.00;;
59302;SDS011;45074;52.764;6.896;2023-11-18T09:07:57;41.65;;;17.67;;
59302;SDS011;45074;52.764;6.896;2023-11-18T09:10:26;38.38;;;17.67;;
59302;SDS011;45074;52.764;6.896;2023-11-18T09:12:53;33.60;;;17.48;;
59302;SDS011;45074;52.764;6.896;2023-11-18T09:15:19;34.42;;;17.30;;
59302;SDS011;45074;52.764;6.896;2023-11-18T09:17:49;37.80;;;18.05;;
59302;SDS011;45074;52.764;6.896;2023-11-18T09:20:15;37.72;;;17.92;;
59302;SDS011;45074;52.764;6.896;2023-11-18T09:22:50;37.72;;;17.70;;
59302;SDS011;45074;52.764;6.896;2023-11-18T09:25:20;33.90;;;15.95;;
59302;SDS011;45074;52.764;6.896;2023-11-18T09:27:47;32.38;;;15.75;;
59302;SDS011;45074;52.764;6.896;2023-11-18T09:30:13;35.58;;;16.52;;
59302;SDS011;45074;52.764;6.896;2023-11-18T09:32:39;34.60;;;16.10;;
59302;SDS011;45074;52.764;6.896;2023-11-18T09:35:07;35.95;;;16.35;;
59302;SDS011;45074;52.764;6.896;2023-11-18T09:37:34;34.40;;;16.52;;
59302;SDS011;45074;52.764;6.896;2023-11-18T09:40:01;35.85;;;16.88;;
59302;SDS011;45074;52.764;6.896;2023-11-18T09:42:36;33.05;;;15.07;;
59302;SDS011;45074;52.764;6.896;2023-11-18T09:45:04;34.72;;;16.63;;
59302;SDS011;45074;52.764;6.896;2023-11-18T09:47:38;32.00;;;16.08;;
59302;SDS011;45074;52.764;6.896;2023-11-18T09:50:08;32.67;;;15.93;;
59302;SDS011;45074;52.764;6.896;2023-11-18T09:52:37;34.63;;;16.95;;
59302;SDS011;45074;52.764;6.896;2023-11-18T09:55:26;35.75;;;16.58;;
59302;SDS011;45074;52.764;6.896;2023-11-18T09:58:04;35.33;;;17.23;;
59302;SDS011;45074;52.764;6.896;2023-11-18T10:00:38;29.27;;;15.48;;
59302;SDS011;45074;52.764;6.896;2023-11-18T10:03:07;33.30;;;16.52;;
59302;SDS011;45074;52.764;6.896;2023-11-18T10:05:35;34.65;;;16.92;;
59302;SDS011;45074;52.764;6.896;2023-11-18T10:08:02;30.02;;;16.25;;
59302;SDS011;45074;52.764;6.896;2023-11-18T10:10:31;30.15;;;15.52;;
59302;SDS011;45074;52.764;6.896;2023-11-18T10:13:10;33.60;;;16.88;;
59302;SDS011;45074;52.764;6.896;2023-11-18T10:15:49;32.25;;;16.60;;
59302;SDS011;45074;52.764;6.896;2023-11-18T10:18:18;33.22;;;16.58;;
59302;SDS011;45074;52.764;6.896;2023-11-18T10:20:48;31.55;;;16.02;;
59302;SDS011;45074;52.764;6.896;2023-11-18T10:23:18;30.67;;;15.90;;
59302;SDS011;45074;52.764;6.896;2023-11-18T10:28:30;29.23;;;15.63;;
59302;SDS011;45074;52.764;6.896;2023-11-18T10:31:04;29.05;;;15.45;;
59302;SDS011;45074;52.764;6.896;2023-11-18T10:33:32;29.48;;;14.27;;
59302;SDS011;45074;52.764;6.896;2023-11-18T10:36:00;29.85;;;14.07;;
59302;SDS011;45074;52.764;6.896;2023-11-18T10:38:33;29.52;;;14.75;;
59302;SDS011;45074;52.764;6.896;2023-11-18T10:41:08;25.98;;;14.27;;
59302;SDS011;45074;52.764;6.896;2023-11-18T10:43:34;28.70;;;14.38;;
59302;SDS011;45074;52.764;6.896;2023-11-18T10:48:46;27.40;;;14.30;;
59302;SDS011;45074;52.764;6.896;2023-11-18T10:51:14;25.95;;;13.50;;
59302;SDS011;45074;52.764;6.896;2023-11-18T10:53:44;26.10;;;14.13;;
59302;SDS011;45074;52.764;6.896;2023-11-18T10:56:23;25.27;;;14.05;;
59302;SDS011;45074;52.764;6.896;2023-11-18T10:58:52;29.60;;;14.00;;
59302;SDS011;45074;52.764;6.896;2023-11-18T11:01:31;27.55;;;13.27;;
59302;SDS011;45074;52.764;6.896;2023-11-18T11:04:10;27.05;;;14.30;;
59302;SDS011;45074;52.764;6.896;2023-11-18T11:06:43;30.52;;;15.32;;
59302;SDS011;45074;52.764;6.896;2023-11-18T11:09:25;27.30;;;14.35;;
59302;SDS011;45074;52.764;6.896;2023-11-18T11:12:00;26.17;;;13.20;;
59302;SDS011;45074;52.764;6.896;2023-11-18T11:14:35;27.33;;;13.88;;
59302;SDS011;45074;52.764;6.896;2023-11-18T11:17:12;27.13;;;13.68;;
59302;SDS011;45074;52.764;6.896;2023-11-18T11:19:47;27.05;;;13.70;;
59302;SDS011;45074;52.764;6.896;2023-11-18T11:22:21;24.88;;;13.40;;
59302;SDS011;45074;52.764;6.896;2023-11-18T11:27:49;24.83;;;13.27;;
59302;SDS011;45074;52.764;6.896;2023-11-18T11:30:28;23.88;;;12.90;;
59302;SDS011;45074;52.764;6.896;2023-11-18T11:33:18;24.77;;;13.27;;
59302;SDS011;45074;52.764;6.896;2023-11-18T11:35:56;26.30;;;13.50;;
59302;SDS011;45074;52.764;6.896;2023-11-18T11:38:24;22.58;;;12.60;;
59302;SDS011;45074;52.764;6.896;2023-11-18T11:40:52;21.92;;;12.38;;
59302;SDS011;45074;52.764;6.896;2023-11-18T11:43:20;21.48;;;12.55;;
59302;SDS011;45074;52.764;6.896;2023-11-18T11:45:48;23.23;;;12.98;;
59302;SDS011;45074;52.764;6.896;2023-11-18T11:48:17;23.27;;;12.20;;
59302;SDS011;45074;52.764;6.896;2023-11-18T11:50:55;25.85;;;12.25;;
59302;SDS011;45074;52.764;6.896;2023-11-18T11:53:39;24.48;;;12.80;;
59302;SDS011;45074;52.764;6.896;2023-11-18T11:56:11;21.88;;;12.70;;
59302;SDS011;45074;52.764;6.896;2023-11-18T11:58:46;21.98;;;11.60;;
59302;SDS011;45074;52.764;6.896;2023-11-18T12:01:26;23.77;;;12.65;;
59302;SDS011;45074;52.764;6.896;2023-11-18T12:04:09;22.63;;;12.38;;
59302;SDS011;45074;52.764;6.896;2023-11-18T12:06:46;23.38;;;12.13;;
59302;SDS011;45074;52.764;6.896;2023-11-18T12:09:16;22.83;;;11.65;;
59302;SDS011;45074;52.764;6.896;2023-11-18T12:11:45;21.92;;;12.63;;
59302;SDS011;45074;52.764;6.896;2023-11-18T12:14:14;22.90;;;12.35;;
59302;SDS011;45074;52.764;6.896;2023-11-18T12:17:04;23.75;;;12.77;;
59302;SDS011;45074;52.764;6.896;2023-11-18T12:19:40;20.77;;;11.82;;
59302;SDS011;45074;52.764;6.896;2023-11-18T12:22:19;22.33;;;11.77;;
59302;SDS011;45074;52.764;6.896;2023-11-18T12:33:04;18.50;;;10.77;;
59302;SDS011;45074;52.764;6.896;2023-11-18T12:41:36;20.95;;;10.70;;
59302;SDS011;45074;52.764;6.896;2023-11-18T12:44:10;20.13;;;11.32;;
59302;SDS011;45074;52.764;6.896;2023-11-18T12:46:57;20.35;;;11.38;;
59302;SDS011;45074;52.764;6.896;2023-11-18T12:49:43;21.50;;;11.27;;
59302;SDS011;45074;52.764;6.896;2023-11-18T12:52:10;20.10;;;10.65;;
59302;SDS011;45074;52.764;6.896;2023-11-18T12:54:39;22.98;;;11.00;;
59302;SDS011;45074;52.764;6.896;2023-11-18T12:57:11;20.58;;;10.85;;
59302;SDS011;45074;52.764;6.896;2023-11-18T12:59:40;20.92;;;10.88;;
59302;SDS011;45074;52.764;6.896;2023-11-18T13:02:10;21.52;;;10.48;;
59302;SDS011;45074;52.764;6.896;2023-11-18T13:04:44;19.65;;;10.73;;
59302;SDS011;45074;52.764;6.896;2023-11-18T13:07:15;19.23;;;10.60;;
59302;SDS011;45074;52.764;6.896;2023-11-18T13:09:50;21.38;;;10.38;;
59302;SDS011;45074;52.764;6.896;2023-11-18T13:12:16;20.83;;;10.57;;
59302;SDS011;45074;52.764;6.896;2023-11-18T13:14:45;20.52;;;10.10;;
59302;SDS011;45074;52.764;6.896;2023-11-18T13:17:12;21.25;;;10.70;;
59302;SDS011;45074;52.764;6.896;2023-11-18T13:19:40;20.85;;;10.70;;
59302;SDS011;45074;52.764;6.896;2023-11-18T13:22:07;20.45;;;10.63;;
59302;SDS011;45074;52.764;6.896;2023-11-18T13:24:41;18.92;;;9.85;;
59302;SDS011;45074;52.764;6.896;2023-11-18T13:27:12;20.42;;;10.57;;
59302;SDS011;45074;52.764;6.896;2023-11-18T13:29:39;19.83;;;10.02;;
59302;SDS011;45074;52.764;6.896;2023-11-18T13:32:10;19.25;;;9.95;;
59302;SDS011;45074;52.764;6.896;2023-11-18T13:34:36;20.48;;;10.57;;
59302;SDS011;45074;52.764;6.896;2023-11-18T13:37:06;20.90;;;10.55;;
59302;SDS011;45074;52.764;6.896;2023-11-18T13:39:32;21.45;;;10.07;;
59302;SDS011;45074;52.764;6.896;2023-11-18T13:42:02;21.60;;;10.27;;
59302;SDS011;45074;52.764;6.896;2023-11-18T13:44:43;19.60;;;10.07;;
59302;SDS011;45074;52.764;6.896;2023-11-18T13:47:11;20.33;;;9.88;;
59302;SDS011;45074;52.764;6.896;2023-11-18T13:49:37;17.63;;;9.85;;
59302;SDS011;45074;52.764;6.896;2023-11-18T13:52:07;23.58;;;9.88;;
59302;SDS011;45074;52.764;6.896;2023-11-18T13:54:35;20.15;;;9.93;;
59302;SDS011;45074;52.764;6.896;2023-11-18T13:57:05;19.38;;;10.63;;
59302;SDS011;45074;52.764;6.896;2023-11-18T13:59:31;19.00;;;10.23;;
59302;SDS011;45074;52.764;6.896;2023-11-18T14:01:58;19.60;;;10.43;;
59302;SDS011;45074;52.764;6.896;2023-11-18T14:04:31;19.52;;;10.90;;
59302;SDS011;45074;52.764;6.896;2023-11-18T14:06:59;21.40;;;11.23;;
59302;SDS011;45074;52.764;6.896;2023-11-18T14:09:29;21.63;;;10.63;;
59302;SDS011;45074;52.764;6.896;2023-11-18T14:11:57;18.88;;;10.55;;
59302;SDS011;45074;52.764;6.896;2023-11-18T14:14:23;19.05;;;10.43;;
59302;SDS011;45074;52.764;6.896;2023-11-18T14:16:50;19.50;;;10.70;;
59302;SDS011;45074;52.764;6.896;2023-11-18T14:19:23;21.60;;;9.68;;
59302;SDS011;45074;52.764;6.896;2023-11-18T14:21:50;19.00;;;10.25;;
59302;SDS011;45074;52.764;6.896;2023-11-18T14:24:18;21.15;;;9.60;;
59302;SDS011;45074;52.764;6.896;2023-11-18T14:26:44;20.80;;;10.60;;
59302;SDS011;45074;52.764;6.896;2023-11-18T14:29:10;18.10;;;9.45;;
59302;SDS011;45074;52.764;6.896;2023-11-18T14:31:39;20.05;;;9.57;;
59302;SDS011;45074;52.764;6.896;2023-11-18T14:34:05;19.48;;;9.70;;
59302;SDS011;45074;52.764;6.896;2023-11-18T14:36:31;18.80;;;10.35;;
59302;SDS011;45074;52.764;6.896;2023-11-18T14:38:57;20.75;;;10.13;;
59302;SDS011;45074;52.764;6.896;2023-11-18T14:41:23;19.40;;;9.63;;
59302;SDS011;45074;52.764;6.896;2023-11-18T14:43:52;18.27;;;9.73;;
59302;SDS011;45074;52.764;6.896;2023-11-18T14:46:18;17.92;;;9.60;;
59302;SDS011;45074;52.764;6.896;2023-11-18T14:48:44;21.75;;;10.60;;
59302;SDS011;45074;52.764;6.896;2023-11-18T14:51:10;22.77;;;10.63;;
59302;SDS011;45074;52.764;6.896;2023-11-18T14:53:37;21.67;;;10.20;;
59302;SDS011;45074;52.764;6.896;2023-11-18T14:56:03;18.00;;;9.63;;
59302;SDS011;45074;52.764;6.896;2023-11-18T14:58:31;18.33;;;9.75;;